Time;durP1;ratioP1;P1;durP2;ratioP2;P2;SDS_P1;SDS_P2;PMS_P1;PMS_P2;Temp;Humidity;BMP_temperature;BMP_pressure;BME280_temperature;BME280_humidity;BME280_pressure;Samples;Min_cycle;Max_cycle;Signal;HPM_P1;HPM_P2
2022/01/27 00:00:46;;;;;;;23.80;14.60;;;;;;;-0.08;83.16;101558.80;107808;1247;70447;-80
2022/01/27 00:06:00;;;;;;;24.10;14.70;;;;;;;-0.06;83.30;101560.15;107781;1246;74539;-80
2022/01/27 00:08:42;;;;;;;27.70;15.50;;;;;;;-0.04;83.04;101559.43;108964;1246;60122;-80
2022/01/27 00:11:15;;;;;;;27.00;14.70;;;;;;;-0.01;83.10;101558.70;108450;1246;59586;-79
2022/01/27 00:14:00;;;;;;;25.70;15.40;;;;;;;0.05;82.68;101559.29;107659;1247;72888;-81
2022/01/27 00:16:33;;;;;;;32.30;17.40;;;;;;;0.06;82.50;101560.83;107578;1248;70351;-83
2022/01/27 00:19:03;;;;;;;30.40;16.30;;;;;;;0.04;82.14;101556.05;107527;1246;70644;-77
2022/01/27 00:21:32;;;;;;;29.10;17.00;;;;;;;0.01;82.23;101558.02;107529;1247;74181;-79
2022/01/27 00:24:02;;;;;;;29.60;17.40;;;;;;;0.03;82.31;101557.79;107529;1247;61783;-80
2022/01/27 00:26:31;;;;;;;30.50;17.80;;;;;;;-0.01;82.42;101555.27;107339;1247;59445;-81
2022/01/27 00:29:00;;;;;;;26.20;14.10;;;;;;;0.01;82.09;101553.89;107463;1248;72542;-81
2022/01/27 00:31:29;;;;;;;22.80;13.60;;;;;;;-0.02;81.78;101554.10;107356;1248;70779;-80
2022/01/27 00:34:03;;;;;;;27.70;15.80;;;;;;;-0.08;81.93;101551.09;107509;1247;70594;-79
2022/01/27 00:36:33;;;;;;;24.90;14.20;;;;;;;-0.09;82.58;101552.66;107483;1248;71576;-79
2022/01/27 00:39:03;;;;;;;17.90;10.40;;;;;;;0.01;81.55;101556.45;107639;1247;60519;-80
2022/01/27 00:41:32;;;;;;;19.70;11.10;;;;;;;-0.00;82.13;101551.16;107715;1246;58963;-78
2022/01/27 00:44:02;;;;;;;17.50;10.20;;;;;;;-0.09;82.11;101547.53;107599;1247;71988;-79
2022/01/27 00:46:32;;;;;;;18.70;9.90;;;;;;;-0.17;82.39;101545.24;107162;1247;559989;-81
2022/01/27 00:49:01;;;;;;;20.40;11.30;;;;;;;-0.19;82.94;101548.35;107541;1247;69062;-81
2022/01/27 00:51:35;;;;;;;22.10;11.10;;;;;;;-0.27;82.66;101546.42;107575;1247;72983;-80
2022/01/27 00:54:14;;;;;;;23.70;12.80;;;;;;;-0.24;82.89;101540.38;107428;1248;61524;-78
2022/01/27 01:02:19;;;;;;;22.70;11.60;;;;;;;-0.32;83.27;101524.91;107473;1247;70360;-77
2022/01/27 01:05:01;;;;;;;18.60;10.50;;;;;;;-0.38;83.69;101526.38;107296;1247;70565;-80
2022/01/27 01:07:35;;;;;;;20.80;11.50;;;;;;;-0.38;82.94;101515.76;107489;1247;72941;-82
2022/01/27 01:15:34;;;;;;;20.00;11.70;;;;;;;-0.34;84.99;101500.80;107519;1247;74825;-84
2022/01/27 01:19:01;;;;;;;;;;;;;;;;;;;;;
2022/01/27 01:32:41;;;;;;;21.60;12.30;;;;;;;-0.29;82.31;101493.54;107698;1245;73341;-81
2022/01/27 01:35:11;;;;;;;20.10;12.90;;;;;;;-0.33;82.06;101493.27;107710;1247;73034;-82
2022/01/27 01:37:42;;;;;;;21.40;11.70;;;;;;;-0.40;82.49;101493.89;107725;1247;69607;-82
2022/01/27 01:40:17;;;;;;;19.60;12.10;;;;;;;-0.45;82.96;101501.84;107620;1247;74748;-82
2022/01/27 01:42:46;;;;;;;21.80;12.70;;;;;;;-0.42;82.69;101499.56;107724;1247;60955;-83
2022/01/27 01:45:18;;;;;;;21.70;11.10;;;;;;;-0.41;83.25;101500.39;107738;1247;58952;-83
2022/01/27 01:47:49;;;;;;;19.80;11.80;;;;;;;-0.42;82.85;101499.89;107754;1246;74449;-80
2022/01/27 01:50:18;;;;;;;19.20;11.90;;;;;;;-0.42;83.74;101494.59;107726;1247;69944;-80
2022/01/27 01:52:47;;;;;;;22.90;12.80;;;;;;;-0.40;83.16;101501.75;107770;1245;68698;-81
2022/01/27 01:55:18;;;;;;;22.10;12.20;;;;;;;-0.37;82.93;101498.46;107755;1247;71484;-82
2022/01/27 01:57:47;;;;;;;21.90;12.30;;;;;;;-0.35;82.93;101496.89;108711;1247;61380;-80
2022/01/27 02:00:18;;;;;;;17.30;10.70;;;;;;;-0.32;82.67;101501.81;108751;1246;60848;-83
2022/01/27 02:02:46;;;;;;;20.60;11.80;;;;;;;-0.31;82.59;101503.33;107876;1247;73111;-81
2022/01/27 02:05:16;;;;;;;20.40;10.80;;;;;;;-0.29;82.87;101498.35;107634;1248;70391;-82
2022/01/27 02:08:29;;;;;;;18.70;10.70;;;;;;;-0.26;82.40;101500.36;107904;1246;70500;-82
2022/01/27 02:19:28;;;;;;;17.90;8.10;;;;;;;-0.32;82.92;101508.14;107550;1246;73086;-80
2022/01/27 02:22:04;;;;;;;19.00;10.60;;;;;;;-0.31;83.08;101506.25;107389;1248;72368;-83
2022/01/27 02:24:35;;;;;;;17.80;9.30;;;;;;;-0.27;82.96;101501.57;107514;1247;71476;-81
2022/01/27 02:27:05;;;;;;;16.50;9.60;;;;;;;-0.28;82.91;101501.76;107496;1248;72702;-83
2022/01/27 02:29:34;;;;;;;18.10;10.00;;;;;;;-0.27;82.71;101498.66;107578;1247;59600;-81
2022/01/27 02:32:03;;;;;;;11.70;7.40;;;;;;;-0.30;83.51;101495.09;107401;1249;61635;-81
2022/01/27 02:34:32;;;;;;;14.20;7.00;;;;;;;-0.25;82.46;101492.63;107411;1247;72553;-81
2022/01/27 02:37:02;;;;;;;20.60;9.40;;;;;;;-0.25;82.79;101489.89;107554;1246;69571;-82
2022/01/27 02:39:31;;;;;;;15.40;8.60;;;;;;;-0.32;83.43;101484.35;107621;1247;70594;-81
2022/01/27 02:42:15;;;;;;;16.80;9.00;;;;;;;-0.27;83.05;101477.44;107482;1249;74462;-81
2022/01/27 02:44:53;;;;;;;15.50;8.80;;;;;;;-0.26;83.07;101479.45;107505;1248;60907;-82
2022/01/27 02:47:24;;;;;;;18.50;8.60;;;;;;;-0.29;82.97;101477.28;107606;1246;61717;-79
2022/01/27 02:49:54;;;;;;;15.60;8.70;;;;;;;-0.33;83.01;101476.67;107572;1248;73915;-82
2022/01/27 02:52:23;;;;;;;10.90;5.90;;;;;;;-0.34;83.67;101471.36;107645;1246;70055;-79
2022/01/27 02:54:52;;;;;;;14.80;8.60;;;;;;;-0.30;82.57;101473.53;107518;1246;69989;-80
2022/01/27 02:57:24;;;;;;;12.00;7.70;;;;;;;-0.28;82.86;101470.42;107921;1248;72558;-81
2022/01/27 02:59:53;;;;;;;17.90;7.80;;;;;;;-0.24;82.86;101468.12;108239;1247;62352;-80
2022/01/27 03:02:23;;;;;;;17.60;9.10;;;;;;;-0.21;83.02;101464.15;108411;1247;61321;-82
2022/01/27 03:04:53;;;;;;;14.40;7.90;;;;;;;-0.20;82.83;101464.82;107771;1248;75181;-82
2022/01/27 03:07:22;;;;;;;17.50;9.00;;;;;;;-0.19;82.51;101466.35;107798;1248;72571;-80
2022/01/27 03:09:54;;;;;;;18.40;10.00;;;;;;;-0.23;82.44;101468.29;107696;1247;71157;-84
2022/01/27 03:12:25;;;;;;;19.90;10.10;;;;;;;-0.30;83.35;101474.05;107513;1247;74309;-81
2022/01/27 03:14:55;;;;;;;19.00;9.70;;;;;;;-0.27;83.70;101467.67;107317;1247;62666;-80
2022/01/27 03:17:24;;;;;;;19.40;9.80;;;;;;;-0.23;83.19;101463.84;107647;1248;61076;-83
2022/01/27 03:19:53;;;;;;;17.10;9.20;;;;;;;-0.21;83.19;101461.58;107585;1248;72709;-81
2022/01/27 03:22:22;;;;;;;16.60;10.00;;;;;;;-0.17;83.51;101465.63;107957;1247;73356;-82
2022/01/27 03:24:51;;;;;;;20.50;10.80;;;;;;;-0.13;83.56;101468.30;107920;1247;68332;-82
2022/01/27 03:27:24;;;;;;;19.80;10.40;;;;;;;-0.10;83.41;101466.36;107612;1247;74919;-80
2022/01/27 03:29:54;;;;;;;21.40;10.60;;;;;;;-0.09;83.31;101466.36;107651;1247;63341;-83
2022/01/27 03:32:26;;;;;;;18.30;9.40;;;;;;;-0.05;83.28;101463.55;107593;1247;61003;-84
2022/01/27 03:34:54;;;;;;;20.90;10.80;;;;;;;-0.00;83.25;101466.56;107432;1248;74889;-82
2022/01/27 03:37:24;;;;;;;19.70;11.00;;;;;;;0.03;83.08;101464.45;107666;1248;72231;-86
2022/01/27 03:39:53;;;;;;;18.00;10.10;;;;;;;0.03;82.95;101463.59;107589;1247;70757;-81
2022/01/27 03:42:22;;;;;;;20.80;10.30;;;;;;;0.05;82.85;101465.77;107673;1247;74689;-84
2022/01/27 03:44:51;;;;;;;17.30;9.70;;;;;;;0.08;82.88;101465.56;107591;1247;63413;-85
2022/01/27 03:47:20;;;;;;;19.50;11.30;;;;;;;0.14;82.68;101469.23;107516;1248;61920;-84
2022/01/27 03:49:50;;;;;;;19.60;11.10;;;;;;;0.15;82.99;101468.69;107462;1247;76055;-84
2022/01/27 03:52:18;;;;;;;18.50;10.40;;;;;;;0.18;83.19;101469.48;107568;1248;72690;-84
2022/01/27 03:54:48;;;;;;;19.10;10.40;;;;;;;0.21;83.11;101467.05;107386;1249;70395;-84
2022/01/27 03:57:17;;;;;;;17.60;8.80;;;;;;;0.19;82.63;101464.52;107405;1248;75048;-83
2022/01/27 03:59:46;;;;;;;17.60;8.70;;;;;;;0.19;82.33;101464.67;107449;1249;59628;-82
2022/01/27 04:02:16;;;;;;;12.40;7.50;;;;;;;0.21;81.89;101463.45;107353;1248;59634;-78
2022/01/27 04:04:46;;;;;;;15.30;9.10;;;;;;;0.21;81.74;101462.60;107515;1248;74123;-84
2022/01/27 04:07:15;;;;;;;19.00;9.50;;;;;;;0.21;82.32;101470.46;107472;1248;71827;-79
2022/01/27 04:09:44;;;;;;;18.40;9.70;;;;;;;0.22;82.21;101472.34;107472;1247;72287;-83
2022/01/27 04:12:13;;;;;;;20.90;11.00;;;;;;;0.23;82.17;101474.21;107455;1246;74875;-82
2022/01/27 04:14:43;;;;;;;16.40;9.30;;;;;;;0.23;82.26;101472.33;107547;1246;60149;-82
2022/01/27 04:17:12;;;;;;;20.70;11.50;;;;;;;0.24;82.20;101476.95;107401;1247;59914;-83
2022/01/27 04:19:42;;;;;;;20.30;11.70;;;;;;;0.26;82.22;101477.05;107477;1247;74784;-84
2022/01/27 04:22:11;;;;;;;20.30;10.10;;;;;;;0.23;82.40;101473.70;107493;1247;73031;-85
2022/01/27 04:24:40;;;;;;;16.30;7.90;;;;;;;0.26;81.65;101475.69;107480;1248;71258;-83
2022/01/27 04:27:17;;;;;;;18.80;8.20;;;;;;;0.22;81.54;101479.18;107406;1247;71588;-84
2022/01/27 04:29:46;;;;;;;18.10;10.00;;;;;;;0.14;81.70;101474.70;107459;1247;59594;-84
2022/01/27 04:32:22;;;;;;;22.90;11.90;;;;;;;0.11;81.96;101468.76;107555;1247;61238;-83
2022/01/27 04:34:54;;;;;;;17.40;10.30;;;;;;;0.06;82.37;101465.94;107681;1248;71074;-84
2022/01/27 04:37:25;;;;;;;15.10;8.90;;;;;;;0.04;82.29;101460.48;107490;1247;72179;-83
2022/01/27 04:40:04;;;;;;;13.70;8.30;;;;;;;0.04;82.10;101459.64;107569;1247;70111;-84
2022/01/27 04:42:47;;;;;;;13.70;7.50;;;;;;;0.00;82.07;101457.13;107471;1247;73305;-82
2022/01/27 04:45:19;;;;;;;18.40;9.50;;;;;;;-0.04;82.42;101453.59;107480;1247;59894;-84
2022/01/27 04:47:53;;;;;;;21.60;11.70;;;;;;;-0.06;82.26;101457.06;107547;1247;60034;-83
2022/01/27 04:50:22;;;;;;;23.80;11.80;;;;;;;-0.07;83.12;101457.93;107470;1247;71755;-82
2022/01/27 04:52:54;;;;;;;22.90;11.50;;;;;;;-0.07;83.47;101455.87;107586;1247;70713;-82
2022/01/27 04:55:24;;;;;;;18.60;9.90;;;;;;;-0.06;84.29;101457.05;107598;1247;69906;-84
2022/01/27 04:58:06;;;;;;;21.40;10.80;;;;;;;-0.03;82.78;101460.77;107578;1247;72608;-82
2022/01/27 05:00:36;;;;;;;23.10;11.10;;;;;;;-0.08;86.02;101458.81;107704;1247;60349;-81
2022/01/27 05:03:15;;;;;;;18.50;10.50;;;;;;;-0.07;85.58;101454.86;107732;1247;60464;-82
2022/01/27 05:05:44;;;;;;;23.50;14.30;;;;;;;-0.06;85.52;101450.55;107577;1249;75772;-82
2022/01/27 05:08:18;;;;;;;20.70;10.40;;;;;;;-0.04;87.00;101454.12;107538;1248;70441;-83
2022/01/27 05:10:56;;;;;;;17.50;8.90;;;;;;;0.04;84.80;101454.48;107647;1247;69785;-80
2022/01/27 05:13:29;;;;;;;20.00;10.10;;;;;;;0.07;83.82;101457.55;107590;1248;72325;-80
2022/01/27 05:16:00;;;;;;;21.10;10.60;;;;;;;0.05;83.62;101458.77;108088;1248;60441;-83
2022/01/27 05:18:29;;;;;;;23.40;13.00;;;;;;;0.01;84.86;101457.30;108190;1247;61707;-86
2022/01/27 05:20:58;;;;;;;25.70;15.90;;;;;;;0.05;85.26;101463.55;107672;1247;73119;-85
2022/01/27 05:23:27;;;;;;;28.30;15.90;;;;;;;0.07;85.32;101464.55;107681;1247;72335;-84
2022/01/27 05:25:56;;;;;;;23.70;13.70;;;;;;;0.10;85.27;101466.54;107715;1247;70408;-83
2022/01/27 05:28:25;;;;;;;24.50;13.30;;;;;;;0.16;84.70;101470.04;107677;1247;74675;-84
2022/01/27 05:30:54;;;;;;;23.40;13.40;;;;;;;0.18;84.50;101469.15;107404;1247;61291;-84
2022/01/27 05:33:23;;;;;;;28.10;15.00;;;;;;;0.20;84.69;101471.19;107606;1247;59387;-83
2022/01/27 05:35:52;;;;;;;26.60;14.60;;;;;;;0.19;84.41;101468.46;107620;1247;71635;-84
2022/01/27 05:38:21;;;;;;;24.60;12.90;;;;;;;0.19;83.88;101467.08;107667;1247;68972;-84
2022/01/27 05:40:53;;;;;;;25.80;13.80;;;;;;;0.20;83.90;101465.18;107619;1247;70595;-84
2022/01/27 05:43:22;;;;;;;26.20;13.70;;;;;;;0.22;84.01;101469.08;107552;1247;74314;-83
2022/01/27 05:45:51;;;;;;;27.50;13.50;;;;;;;0.24;84.32;101470.44;107559;1247;61503;-82
2022/01/27 05:48:19;;;;;;;26.10;13.80;;;;;;;0.26;84.22;101474.33;108121;1247;61141;-82
2022/01/27 05:50:49;;;;;;;29.10;14.00;;;;;;;0.25;84.29;101480.34;109138;1247;74927;-84
2022/01/27 05:53:18;;;;;;;27.30;15.70;;;;;;;0.28;83.83;101484.59;108972;1247;73372;-83
2022/01/27 05:55:47;;;;;;;29.60;14.60;;;;;;;0.31;83.40;101486.91;107812;1246;71268;-85
2022/01/27 05:58:16;;;;;;;29.90;15.10;;;;;;;0.27;83.59;101487.67;107470;1249;74097;-87
2022/01/27 06:00:45;;;;;;;30.70;17.30;;;;;;;0.25;83.35;101485.81;107513;1247;59637;-84
2022/01/27 06:03:14;;;;;;;31.50;16.90;;;;;;;0.15;84.27;101485.80;107536;1247;62071;-84
2022/01/27 06:05:43;;;;;;;28.50;16.20;;;;;;;0.12;84.92;101487.41;107438;1247;75238;-81
2022/01/27 06:08:12;;;;;;;29.40;16.70;;;;;;;0.18;84.62;101487.66;107735;1247;71948;-83
2022/01/27 06:10:41;;;;;;;34.90;19.40;;;;;;;0.25;84.04;101488.22;107692;1248;71436;-86
2022/01/27 06:13:10;;;;;;;33.70;19.90;;;;;;;0.25;84.03;101489.59;107700;1247;74148;-85
2022/01/27 06:15:39;;;;;;;33.70;17.80;;;;;;;0.28;83.57;101491.61;107729;1247;60330;-83
2022/01/27 06:18:09;;;;;;;30.00;17.50;;;;;;;0.27;83.26;101490.06;107641;1247;60144;-87
2022/01/27 06:20:40;;;;;;;27.50;14.90;;;;;;;0.31;82.77;101492.41;107792;1246;72914;-86
2022/01/27 06:23:09;;;;;;;26.30;16.00;;;;;;;0.30;82.94;101494.13;107574;1247;73199;-83
2022/01/27 06:25:38;;;;;;;27.60;14.90;;;;;;;0.30;83.23;101490.86;107564;1247;70915;-83
2022/01/27 06:28:07;;;;;;;26.80;13.50;;;;;;;0.30;83.17;101495.34;107666;1247;74085;-83
2022/01/27 06:30:36;;;;;;;28.20;16.40;;;;;;;0.31;82.84;101489.67;107579;1247;61410;-84
2022/01/27 06:33:07;;;;;;;26.60;14.40;;;;;;;0.36;82.76;101491.98;107618;1247;61618;-84
2022/01/27 06:35:37;;;;;;;26.90;15.00;;;;;;;0.40;82.68;101491.56;107412;1247;72233;-84
2022/01/27 06:38:07;;;;;;;27.30;14.80;;;;;;;0.44;82.93;101490.96;107660;1247;73307;-87
2022/01/27 06:40:36;;;;;;;28.80;13.60;;;;;;;0.47;82.69;101497.10;107760;1247;69493;-88
2022/01/27 06:43:06;;;;;;;24.60;14.30;;;;;;;0.46;82.62;101495.41;107788;1246;73888;-87
2022/01/27 06:45:34;;;;;;;25.60;13.80;;;;;;;0.53;82.71;101499.21;107785;1247;61723;-85
2022/01/27 06:48:04;;;;;;;24.40;12.30;;;;;;;0.60;82.94;101497.02;107790;1247;60471;-83
2022/01/27 06:50:36;;;;;;;24.60;14.10;;;;;;;0.69;82.93;101497.89;107688;1247;76069;-83
2022/01/27 06:53:06;;;;;;;24.60;14.30;;;;;;;0.70;82.83;101500.60;107425;1248;72825;-89
2022/01/27 06:55:37;;;;;;;19.40;11.40;;;;;;;0.71;82.62;101499.05;107934;1247;67988;-89
2022/01/27 06:58:06;;;;;;;27.70;15.80;;;;;;;0.69;82.27;101500.11;107978;1247;74447;-92
2022/01/27 07:00:34;;;;;;;21.10;11.90;;;;;;;0.63;82.96;101503.65;107842;1247;61774;-89
2022/01/27 07:03:04;;;;;;;32.30;15.90;;;;;;;0.66;82.79;101505.83;107809;1248;61093;-87
2022/01/27 07:05:34;;;;;;;35.60;18.00;;;;;;;0.61;83.07;101499.77;107779;1246;75035;-88
2022/01/27 07:08:04;;;;;;;29.80;14.90;;;;;;;0.55;83.44;101500.04;107811;1247;71093;-89
2022/01/27 07:10:36;;;;;;;27.90;16.60;;;;;;;0.58;83.57;101498.95;107683;1247;68773;-91
2022/01/27 07:13:05;;;;;;;30.10;16.00;;;;;;;0.61;83.89;101500.45;107991;1247;71232;-89
2022/01/27 07:15:34;;;;;;;26.80;15.00;;;;;;;0.70;83.70;101500.27;107973;1246;59484;-91
2022/01/27 07:18:03;;;;;;;27.00;15.60;;;;;;;0.73;83.57;101498.34;107636;1247;61696;-92
2022/01/27 07:20:31;;;;;;;27.00;15.40;;;;;;;0.76;83.61;101494.30;107617;1246;74529;-91
2022/01/27 07:23:00;;;;;;;27.10;14.40;;;;;;;0.82;83.41;101495.75;107710;1247;73190;-83
2022/01/27 07:25:29;;;;;;;17.40;10.80;;;;;;;0.90;83.39;101490.27;107725;1247;69441;-89
2022/01/27 07:27:59;;;;;;;23.40;13.50;;;;;;;0.97;83.18;101489.61;107764;1247;72735;-91
2022/01/27 07:30:28;;;;;;;19.80;12.30;;;;;;;1.01;82.95;101491.42;109203;1246;59039;-89
2022/01/27 07:32:57;;;;;;;26.50;14.40;;;;;;;0.99;83.21;101489.23;108744;1247;60073;-84
2022/01/27 07:35:26;;;;;;;21.40;12.60;;;;;;;1.05;83.04;101490.66;108179;1246;75357;-84
2022/01/27 07:37:55;;;;;;;24.60;13.90;;;;;;;1.10;82.82;101494.67;107268;1248;70231;-82
2022/01/27 07:40:24;;;;;;;25.60;13.50;;;;;;;1.12;82.96;101493.95;107410;1247;66939;-85
2022/01/27 07:43:13;;;;;;;21.20;11.00;;;;;;;1.22;82.98;101492.36;107690;1247;73470;-88
2022/01/27 07:45:42;;;;;;;23.20;13.50;;;;;;;1.29;82.31;101491.34;107651;1247;59556;-88
2022/01/27 07:48:11;;;;;;;24.30;13.70;;;;;;;1.30;82.25;101494.95;107531;1248;61074;-86
2022/01/27 07:50:40;;;;;;;22.00;12.70;;;;;;;1.29;82.59;101490.15;107572;1247;72549;-83
2022/01/27 07:53:09;;;;;;;23.50;14.70;;;;;;;1.45;82.38;101488.79;107645;1247;70385;-86
2022/01/27 07:55:38;;;;;;;21.40;12.60;;;;;;;1.48;82.16;101488.35;107626;1246;68659;-86
2022/01/27 07:58:07;;;;;;;23.90;12.10;;;;;;;1.53;82.37;101492.02;107539;1247;71692;-86
2022/01/27 08:00:37;;;;;;;22.40;11.60;;;;;;;1.63;81.89;101492.66;108025;1246;60298;-83
2022/01/27 08:03:06;;;;;;;22.60;12.80;;;;;;;1.63;81.77;101491.80;107560;1246;60228;-89
2022/01/27 08:05:35;;;;;;;24.90;13.10;;;;;;;1.62;82.01;101489.59;107910;1247;72483;-86
2022/01/27 08:08:04;;;;;;;23.80;13.70;;;;;;;1.64;82.28;101492.13;107834;1248;72358;-88
2022/01/27 08:10:37;;;;;;;18.10;10.20;;;;;;;1.69;82.02;101490.98;107950;1247;69080;-91
2022/01/27 08:13:08;;;;;;;24.00;11.00;;;;;;;1.73;82.10;101497.59;108067;1247;71209;-92
2022/01/27 08:15:36;;;;;;;18.30;10.50;;;;;;;1.82;81.70;101500.30;108218;1246;61438;-90
2022/01/27 08:18:06;;;;;;;21.60;10.50;;;;;;;1.87;81.27;101503.95;107988;1247;61081;-92
2022/01/27 08:20:37;;;;;;;19.70;11.10;;;;;;;1.89;81.27;101505.46;108283;1246;74438;-93
2022/01/27 08:23:06;;;;;;;26.60;13.50;;;;;;;1.89;80.55;101507.52;108186;1247;73144;-91
2022/01/27 08:25:35;;;;;;;22.20;12.40;;;;;;;1.85;80.87;101504.34;108076;1246;71137;-91
2022/01/27 08:28:07;;;;;;;22.90;12.10;;;;;;;2.06;80.78;101502.98;108030;1247;73742;-91
2022/01/27 08:30:42;;;;;;;20.70;11.70;;;;;;;2.11;80.22;101502.52;108350;1246;59907;-92
2022/01/27 08:33:15;;;;;;;25.90;13.50;;;;;;;2.08;79.84;101502.06;108379;1246;61117;-90
2022/01/27 08:35:44;;;;;;;25.70;13.30;;;;;;;2.11;79.95;101506.30;108662;1246;72977;-88
2022/01/27 08:38:14;;;;;;;24.60;13.40;;;;;;;2.15;80.46;101509.98;108705;1245;69687;-86
2022/01/27 08:40:43;;;;;;;27.10;14.80;;;;;;;2.20;81.19;101512.27;109077;1246;68819;-88
2022/01/27 08:43:12;;;;;;;21.50;13.10;;;;;;;2.30;81.45;101510.64;108956;1247;73478;-87
2022/01/27 08:45:42;;;;;;;19.90;11.40;;;;;;;2.44;80.87;101515.43;108031;1248;59586;-92
2022/01/27 08:48:16;;;;;;;21.00;11.90;;;;;;;2.47;78.05;101516.23;107927;1246;62316;-91
2022/01/27 08:50:53;;;;;;;20.40;11.30;;;;;;;2.47;78.58;101509.70;108025;1246;74850;-90
2022/01/27 08:53:41;;;;;;;23.70;11.50;;;;;;;2.57;77.76;101511.65;108277;1247;72254;-91
2022/01/27 08:56:13;;;;;;;21.10;11.10;;;;;;;2.61;78.41;101507.60;107994;1247;70274;-87
2022/01/27 08:58:42;;;;;;;22.30;14.00;;;;;;;2.67;77.97;101502.61;107875;1246;72448;-94
2022/01/27 09:01:11;;;;;;;30.20;17.70;;;;;;;2.64;78.14;101506.30;108326;1246;59521;-84
2022/01/27 09:03:40;;;;;;;29.80;16.30;;;;;;;2.67;78.82;101506.23;108030;1247;59088;-87
2022/01/27 09:06:09;;;;;;;36.90;18.80;;;;;;;2.70;78.18;101504.25;107753;1247;74607;-87
2022/01/27 09:08:42;;;;;;;31.30;16.10;;;;;;;2.76;77.51;101501.00;107838;1248;71330;-85
2022/01/27 09:11:12;;;;;;;27.80;16.30;;;;;;;2.86;77.99;101501.39;107656;1247;69764;-89
2022/01/27 09:13:42;;;;;;;26.40;15.50;;;;;;;2.90;77.58;101498.91;107638;1247;72534;-90
2022/01/27 09:16:11;;;;;;;21.40;12.80;;;;;;;2.90;77.30;101501.45;107677;1246;59966;-89
2022/01/27 09:18:40;;;;;;;22.00;10.40;;;;;;;2.89;76.15;101501.33;107719;1247;59301;-87
2022/01/27 09:21:18;;;;;;;18.90;10.70;;;;;;;2.83;74.84;101494.62;107670;1245;72863;-86
2022/01/27 09:23:48;;;;;;;22.00;12.00;;;;;;;2.77;74.56;101493.21;108126;1247;72440;-92
2022/01/27 09:26:40;;;;;;;19.00;11.40;;;;;;;2.78;74.95;101492.17;108046;1247;70899;-91
2022/01/27 09:29:09;;;;;;;19.40;10.40;;;;;;;2.79;74.10;101490.79;108099;1248;71391;-91
2022/01/27 09:31:39;;;;;;;21.40;12.00;;;;;;;2.75;73.69;101483.83;107792;1247;60798;-87
2022/01/27 09:34:14;;;;;;;18.60;11.00;;;;;;;2.78;74.78;101481.35;108077;1246;59023;-88
2022/01/27 09:36:44;;;;;;;21.60;10.60;;;;;;;2.84;73.53;101482.04;108019;1247;75565;-91
2022/01/27 09:39:14;;;;;;;20.50;10.90;;;;;;;2.88;73.56;101492.75;107900;1247;73192;-90
2022/01/27 09:41:43;;;;;;;24.20;12.50;;;;;;;2.96;73.69;101494.95;107991;1247;69808;-91
2022/01/27 09:44:13;;;;;;;23.10;11.10;;;;;;;3.01;74.39;101491.35;107860;1249;70378;-90
2022/01/27 09:46:45;;;;;;;20.50;12.10;;;;;;;3.02;73.82;101491.16;108051;1247;59703;-92
2022/01/27 09:49:18;;;;;;;17.10;9.20;;;;;;;2.98;73.24;101491.45;108031;1246;59422;-93
2022/01/27 09:51:47;;;;;;;19.20;11.00;;;;;;;3.03;72.64;101487.50;107598;1247;75491;-91
2022/01/27 09:54:16;;;;;;;15.60;9.30;;;;;;;3.11;73.40;101485.39;108650;1246;70005;-93
2022/01/27 09:56:45;;;;;;;18.40;10.70;;;;;;;3.07;72.04;101479.16;109098;1247;69728;-93
2022/01/27 09:59:17;;;;;;;13.40;8.20;;;;;;;3.16;72.11;101484.02;108814;1246;73586;-87
2022/01/27 10:02:22;;;;;;;16.00;9.10;;;;;;;3.12;71.60;101484.50;107910;1247;59603;-86
2022/01/27 10:04:57;;;;;;;20.00;10.30;;;;;;;3.06;71.41;101481.56;106927;1254;59524;-84
2022/01/27 10:07:39;;;;;;;21.80;10.60;;;;;;;3.08;72.26;101476.87;107487;1246;71713;-81
2022/01/27 10:10:16;;;;;;;20.10;11.00;;;;;;;3.13;72.52;101472.59;107579;1246;69762;-84
2022/01/27 10:12:51;;;;;;;17.80;10.00;;;;;;;3.10;72.43;101470.78;107648;1246;70303;-88
2022/01/27 10:15:24;;;;;;;17.80;11.00;;;;;;;3.05;72.24;101466.46;108046;1247;73546;-90
2022/01/27 10:18:16;;;;;;;17.60;10.30;;;;;;;2.94;72.09;101460.58;108136;1246;59588;-88
2022/01/27 10:21:13;;;;;;;14.10;7.40;;;;;;;2.92;73.30;101453.76;108141;1246;59514;-82
2022/01/27 10:23:44;;;;;;;15.40;8.90;;;;;;;3.00;73.13;101457.16;107624;1246;74413;-84
2022/01/27 10:26:19;;;;;;;17.10;10.50;;;;;;;2.99;72.79;101456.64;107662;1246;70944;-89
2022/01/27 10:29:12;;;;;;;17.10;10.60;;;;;;;2.91;72.93;101451.38;107655;1247;69730;-84
2022/01/27 10:31:42;;;;;;;18.10;10.60;;;;;;;2.76;73.18;101448.52;108099;1247;72545;-90
2022/01/27 10:34:11;;;;;;;20.60;11.80;;;;;;;2.76;73.81;101450.94;108008;1247;59959;-79
2022/01/27 10:36:44;;;;;;;28.40;14.70;;;;;;;2.78;74.16;101445.23;107902;1246;60088;-89
2022/01/27 10:39:17;;;;;;;24.40;13.10;;;;;;;2.84;74.33;101443.83;107515;1247;72526;-84
2022/01/27 10:42:05;;;;;;;21.30;11.90;;;;;;;2.92;74.42;101438.27;107537;1246;70850;-90
2022/01/27 10:44:54;;;;;;;20.80;12.00;;;;;;;2.99;74.00;101439.63;107559;1247;68550;-82
2022/01/27 10:47:30;;;;;;;19.40;10.10;;;;;;;3.09;73.79;101431.93;107754;1246;72035;-89
2022/01/27 10:50:03;;;;;;;22.10;12.60;;;;;;;3.19;73.46;101433.52;107537;1247;61252;-80
2022/01/27 10:52:41;;;;;;;23.70;13.70;;;;;;;3.37;73.33;101431.90;107709;1246;60346;-91
2022/01/27 10:55:18;;;;;;;21.80;12.90;;;;;;;3.59;73.64;101426.08;107637;1247;71543;-89
2022/01/27 10:57:50;;;;;;;25.60;14.80;;;;;;;3.85;73.17;101424.19;107804;1247;71445;-86
2022/01/27 11:00:23;;;;;;;24.80;14.70;;;;;;;3.91;71.79;101418.82;107461;1248;67910;-85
2022/01/27 11:03:03;;;;;;;24.60;14.50;;;;;;;3.90;72.04;101415.91;107470;1246;71798;-83
2022/01/27 11:05:40;;;;;;;23.40;13.00;;;;;;;3.95;72.31;101415.40;107529;1246;59776;-85
2022/01/27 11:08:10;;;;;;;26.00;14.10;;;;;;;3.92;71.59;101408.45;107612;1246;61382;-82
2022/01/27 11:10:40;;;;;;;20.30;11.90;;;;;;;3.84;72.19;101402.69;107621;1246;73537;-92
2022/01/27 11:13:09;;;;;;;19.10;10.70;;;;;;;3.72;70.84;101400.83;107615;1248;72286;-87
2022/01/27 11:15:41;;;;;;;24.40;14.00;;;;;;;3.78;70.82;101397.23;107456;1247;71322;-86
2022/01/27 11:18:11;;;;;;;23.90;14.00;;;;;;;3.74;71.40;101391.65;107368;1249;72375;-87
2022/01/27 11:20:58;;;;;;;23.70;13.10;;;;;;;3.83;71.47;101391.89;107541;1249;62071;-90
2022/01/27 11:26:11;;;;;;;19.50;11.90;;;;;;;3.85;70.88;101387.48;107708;1247;74779;-80
2022/01/27 11:28:47;;;;;;;23.00;12.70;;;;;;;3.84;70.62;101385.09;108213;1247;72071;-88
2022/01/27 11:32:04;;;;;;;21.90;12.40;;;;;;;3.73;70.38;101388.74;108108;1246;70173;-84
2022/01/27 11:34:51;;;;;;;19.00;10.50;;;;;;;3.71;69.86;101386.58;108153;1247;73588;-86
2022/01/27 11:37:36;;;;;;;24.20;12.60;;;;;;;3.82;70.80;101378.98;108078;1249;60611;-91
2022/01/27 11:40:11;;;;;;;21.40;13.20;;;;;;;3.87;71.00;101382.09;108134;1246;59548;-90
2022/01/27 11:42:58;;;;;;;19.20;10.50;;;;;;;3.82;71.08;101375.34;107800;1246;71684;-89
2022/01/27 11:45:39;;;;;;;23.90;13.50;;;;;;;3.85;70.53;101373.52;108432;1246;69607;-85
2022/01/27 11:48:14;;;;;;;24.50;14.40;;;;;;;3.82;70.44;101374.33;108120;1246;71680;-92
2022/01/27 11:51:10;;;;;;;22.90;12.80;;;;;;;3.83;70.65;101374.44;108071;1246;72607;-83
2022/01/27 11:53:48;;;;;;;25.10;13.90;;;;;;;3.94;70.99;101374.27;107779;1246;61351;-88
2022/01/27 11:56:23;;;;;;;22.30;13.40;;;;;;;3.98;70.70;101374.79;107626;1246;61033;-88
2022/01/27 11:59:08;;;;;;;28.90;16.80;;;;;;;4.13;69.14;101377.06;108707;1247;74875;-92
2022/01/27 12:01:40;;;;;;;24.30;14.70;;;;;;;3.99;70.29;101371.84;108708;1250;69683;-92
2022/01/27 12:04:21;;;;;;;26.70;15.40;;;;;;;4.03;70.57;101368.64;108610;1249;69101;-92
2022/01/27 12:06:53;;;;;;;24.10;14.50;;;;;;;4.03;69.87;101368.77;108484;1250;71264;-90
2022/01/27 12:09:21;;;;;;;22.80;12.60;;;;;;;4.00;68.89;101371.12;108555;1249;61396;-92